This is the latest recevied weather packets stored in our database for station/object EA1PVC-10. If no packets are shown the sender has not sent any weather packets the latest 10 day(s).
| Time | Temp. | Humidity | Pressure | Rain* | Wind** | Luminosity | Snow |
|---|---|---|---|---|---|---|---|
| 1777570782 | 17.78° C | 48% | 923.8 hPa | - | - | - | - |
| 1777569882 | 11.11° C | 49% | 914 hPa | - | - | - | - |
| 1777568971 | 18.33° C | 46% | 923.8 hPa | - | - | - | - |
| 1777568071 | 18.89° C | 45% | 923.8 hPa | - | - | - | - |
| 1777567171 | 18.89° C | 44% | 923.6 hPa | - | - | - | - |
| 1777566271 | 20° C | 42% | 923.6 hPa | - | - | - | - |
| 1777565371 | 20° C | 42% | 923.5 hPa | - | - | - | - |
| 1777564471 | 21.11° C | 41% | 923.4 hPa | - | - | - | - |
| 1777563570 | 23.89° C | 35% | 923.5 hPa | - | - | - | - |
| 1777562670 | 25° C | 35% | 923.4 hPa | - | - | - | - |
| 1777561770 | 20.56° C | 41% | 923.6 hPa | - | - | - | - |
| 1777560870 | 21.67° C | 39% | 923.5 hPa | - | - | - | - |
| 1777559970 | 25° C | 34% | 923.6 hPa | - | - | - | - |
| 1777559070 | 18.33° C | 38% | 917.4 hPa | - | - | - | - |
| 1777558159 | 21.11° C | 40% | 923.7 hPa | - | - | - | - |
| 1777556358 | 22.22° C | 39% | 923.7 hPa | - | - | - | - |
| 1777555458 | 23.89° C | 39% | 923.8 hPa | - | - | - | - |
| 1777554558 | 20° C | 43% | 923.8 hPa | - | - | - | - |
| 1777553658 | 19.44° C | 45% | 923.7 hPa | - | - | - | - |
| 1777552758 | 20° C | 43% | 923.7 hPa | - | - | - | - |
| 1777551858 | 20.56° C | 43% | 923.7 hPa | - | - | - | - |
| 1777550958 | 19.44° C | 46% | 923.7 hPa | - | - | - | - |
| 1777550058 | 8.89° C | 49% | 908.3 hPa | - | - | - | - |
| 1777549158 | 16.67° C | 55% | 923.9 hPa | - | - | - | - |
| 1777548258 | 11.67° C | 53% | 917.2 hPa | - | - | - | - |
* Rain since midnight (hover to see other rain measurements)
** Current wind speed in m/s (hover to see current wind gust speed)